< Typhoon 197407 1974 Season Typhoon 197409 >
Typhoon 197408 (GILDA)
General InformationTrack Information on Google Maps || NewsDisaster Info.ResourceGoogle EarthGE AnimationAtom FeedGeoJSON
Detalied Best Track (Time Zone = UTC)
Year Month Day Hour Lat. Long. Pressure (hPa) Wind (kt) Class Image Chart
1974 6 26 00 17.0 153.0 1006 0 2 -- Chart
1974 6 26 06 16.8 151.7 1006 0 2 -- Chart
1974 6 26 12 16.7 150.7 1006 0 2 -- Chart
1974 6 26 18 16.7 149.7 1006 0 2 -- Chart
1974 6 27 00 16.7 148.7 1006 0 2 -- Chart
1974 6 27 06 16.7 148.0 1004 0 2 -- Chart
1974 6 27 12 16.7 147.3 1004 0 2 -- Chart
1974 6 27 18 16.5 146.5 1004 0 2 -- Chart
1974 6 28 00 17.0 146.0 1002 0 2 -- Chart
1974 6 28 06 17.0 145.5 1000 0 2 -- Chart
1974 6 28 12 17.1 144.5 1000 0 2 -- Chart
1974 6 28 18 17.4 143.4 1000 0 2 -- Chart
1974 6 29 00 17.6 142.2 1000 0 2 -- Chart
1974 6 29 06 18.1 140.9 1000 0 2 -- Chart
1974 6 29 12 18.4 139.8 998 0 2 -- Chart
1974 6 29 18 18.6 138.7 996 0 2 -- Chart
1974 6 30 00 19.0 137.6 994 0 2 -- Chart
1974 6 30 06 19.3 136.4 992 0 2 -- Chart
1974 6 30 12 19.5 135.3 990 0 9 -- Chart
1974 6 30 18 19.6 134.6 990 0 9 -- Chart
1974 7 1 00 19.5 134.2 985 0 9 -- Chart
1974 7 1 06 19.4 133.8 980 0 9 -- Chart
1974 7 1 12 19.5 133.5 980 0 9 -- Chart
1974 7 1 18 19.5 133.0 975 0 9 -- Chart
1974 7 2 00 19.4 132.4 970 0 9 -- Chart
1974 7 2 06 19.8 131.7 965 0 9 -- Chart
1974 7 2 12 20.0 131.0 960 0 9 -- Chart
1974 7 2 18 20.5 130.4 960 0 9 -- Chart
1974 7 3 00 21.2 129.5 960 0 9 -- Chart
1974 7 3 06 22.0 128.8 955 0 9 -- Chart
1974 7 3 12 23.0 128.2 950 0 9 -- Chart
1974 7 3 18 23.6 127.6 955 0 9 -- Chart
1974 7 4 00 24.4 127.2 950 0 9 -- Chart
1974 7 4 06 25.3 126.6 945 0 9 -- Chart
1974 7 4 12 25.9 126.3 945 0 9 -- Chart
1974 7 4 18 26.6 126.2 945 0 9 -- Chart
1974 7 5 00 27.5 126.1 950 0 9 -- Chart
1974 7 5 06 28.4 126.1 955 0 9 -- Chart
1974 7 5 12 29.4 126.2 955 0 9 -- Chart
1974 7 5 18 30.3 126.6 960 0 9 -- Chart
1974 7 6 00 31.4 127.1 965 0 9 -- Chart
1974 7 6 06 32.4 127.3 965 0 9 -- Chart
1974 7 6 12 33.4 127.8 965 0 9 -- Chart
1974 7 6 18 34.6 128.8 975 0 9 -- Chart
1974 7 7 00 36.0 130.0 985 0 9 -- Chart
1974 7 7 06 37.4 131.3 990 0 9 -- Chart
1974 7 7 12 38.4 132.7 990 0 9 -- Chart
1974 7 7 18 39.3 134.6 990 0 9 -- Chart
1974 7 8 00 40.0 136.7 992 0 9 -- Chart
1974 7 8 06 41.3 139.0 996 0 9 -- Chart
1974 7 8 12 41.6 141.7 1000 0 6 -- Chart
1974 7 8 18 41.0 144.0 1000 0 6 -- Chart
1974 7 9 00 40.8 145.4 1000 0 6 -- Chart
1974 7 9 06 40.4 146.6 999 0 6 -- Chart
1974 7 9 12 40.2 147.6 1000 0 6 -- Chart
1974 7 9 18 40.0 148.9 998 0 6 -- Chart
1974 7 10 00 40.0 150.0 998 0 6 -- Chart
1974 7 10 06 39.6 152.2 998 0 6 -- Chart
1974 7 10 12 39.0 155.2 998 0 6 -- Chart
1974 7 10 18 39.1 158.2 996 0 6 -- Chart
1974 7 11 00 41.0 161.2 988 0 6 -- Chart
1974 7 11 06 41.9 163.2 984 0 6 -- Chart
1974 7 11 12 42.4 164.8 984 0 6 -- Chart
1974 7 11 18 43.1 166.6 984 0 6 -- Chart
1974 7 12 00 44.3 167.3 984 0 6 -- Chart
1974 7 12 06 45.9 167.3 984 0 6 -- Chart
1974 7 12 12 47.9 167.0 984 0 6 -- Chart
1974 7 12 18 50.0 166.1 984 0 6 -- Chart
1974 7 13 00 51.0 167.0 984 0 6 -- Chart
1974 7 13 06 51.5 167.1 984 0 6 -- Chart
1974 7 13 12 52.0 167.1 984 0 6 -- Chart
1974 7 13 18 52.5 166.5 988 0 6 -- Chart
1974 7 14 00 52.1 165.0 992 0 6 -- Chart
1974 7 14 06 52.0 166.0 993 0 6 -- Chart
1974 7 14 12 52.6 167.7 994 0 6 -- Chart
1974 7 14 18 52.7 170.0 992 0 6 -- Chart
1974 7 15 00 53.8 171.7 992 0 6 -- Chart
1974 7 15 06 55.0 173.6 992 0 6 -- Chart
1974 7 15 12 55.6 174.8 992 0 6 -- Chart
1974 7 15 18 56.6 175.2 996 0 6 -- Chart
1974 7 16 00 57.0 174.0 996 0 6 -- Chart
1974 7 16 06 57.0 173.0 998 0 6 -- Chart
1974 7 16 12 57.0 172.0 998 0 6 -- Chart
1974 7 16 18 57.0 171.0 1000 0 6 -- Chart
1974 7 17 00 56.0 170.0 1000 0 6 -- Chart
1974 7 17 06 56.0 171.0 1002 0 6 -- Chart
Japan Meteorological Agency Best Track Data | Correction Date : 1989-06-01
< Typhoon 197407 1974 Season Typhoon 197409 >

Help